IVC weather

Invercargill Airport
Invercargill, Southland Region, New Zealand

Public forecast

Using degrees Celsius for public forecast. Weather courtesy of forecast.io.

Closest aviation weather report (METAR) to Invercargill Airport

Closest report is Christchurch International Airport, 250.8 nm (464.5 km) NE. Retrieved 2020/02/19 03:30 UTC (0 seconds ago):

NZCH 190330Z AUTO 18013KT 9999 OVC028/// 21/14 Q1009 BECMG 08015KT

Closest aviation forecast (TAF) to Invercargill Airport

Forecast is more than 6 hours old.

Closest forecast is Queenstown International Airport, 85.4 nm (158.2 km) NNE. Retrieved 2020/02/18 17:05 UTC (10 hours ago):

TAF NZQN 181605Z 1817/1911 24010KT 9999 SCT060